This is the latest recevied weather packets stored in our database for station/object EB1GOD-1. If no packets are shown the sender has not sent any weather packets the latest 10 day(s).
| Time | Temp. | Humidity | Pressure | Rain* | Wind** | Luminosity | Snow |
|---|---|---|---|---|---|---|---|
| 1777419907 | 15° C | 77% | 1149.3 hPa | - | - | - | - |
| 1777419052 | 15.56° C | 74% | 1149.4 hPa | - | - | - | - |
| 1777419006 | 15.56° C | 74% | 1149.4 hPa | - | - | - | - |
| 1777418106 | 15.56° C | 73% | 1149.5 hPa | - | - | - | - |
| 1777417206 | 16.11° C | 74% | 1149.6 hPa | - | - | - | - |
| 1777416306 | 16.11° C | 70% | 1149.6 hPa | - | - | - | - |
| 1777415406 | 16.67° C | 69% | 1149.9 hPa | - | - | - | - |
| 1777414506 | 16.67° C | 69% | 1149.9 hPa | - | - | - | - |
| 1777413606 | 16.67° C | 69% | 1149.9 hPa | - | - | - | - |
| 1777412706 | 17.22° C | 69% | 1150.1 hPa | - | - | - | - |
| 1777411806 | 16.67° C | 69% | 1150.4 hPa | - | - | - | - |
| 1777410906 | 17.78° C | 68% | 1150.4 hPa | - | - | - | - |
| 1777410006 | 17.78° C | 67% | 1150.2 hPa | - | - | - | - |
| 1777409106 | 17.78° C | 68% | 1150.1 hPa | - | - | - | - |
| 1777408206 | 17.22° C | 71% | 1150.2 hPa | - | - | - | - |
| 1777407305 | 16.67° C | 72% | 1150.1 hPa | - | - | - | - |
| 1777406405 | 17.78° C | 68% | 1150 hPa | - | - | - | - |
| 1777405505 | 17.78° C | 70% | 1149.7 hPa | - | - | - | - |
| 1777404606 | 17.78° C | 71% | 1149.8 hPa | - | - | - | - |
| 1777403705 | 18.33° C | 70% | 1149.6 hPa | - | - | - | - |
| 1777402805 | 18.89° C | 66% | 1149.5 hPa | - | - | - | - |
| 1777401905 | 19.44° C | 62% | 1149.6 hPa | - | - | - | - |
| 1777401005 | 20° C | 62% | 1149.5 hPa | - | - | - | - |
| 1777400105 | 19.44° C | 60% | 1149.5 hPa | - | - | - | - |
| 1777399205 | 18.33° C | 70% | 1149.5 hPa | - | - | - | - |
* Rain since midnight (hover to see other rain measurements)
** Current wind speed in m/s (hover to see current wind gust speed)